This is the latest recevied weather packets stored in our database for station/object W6ORV. If no packets are shown the sender has not sent any weather packets the latest 10 day(s).
| Time | Temp. | Humidity | Pressure | Rain* | Wind** | Luminosity | Snow |
|---|---|---|---|---|---|---|---|
| 1777922255 | 18.33° C | 46% | 4299.5 hPa | 0 mm | - | 313 W/m² | - |
| 1777921952 | 18.89° C | 46% | 4299.4 hPa | 0 mm | - | 255 W/m² | - |
| 1777921647 | 18.89° C | 45% | 4299.3 hPa | 0 mm | - | 603 W/m² | - |
| 1777921344 | 18.89° C | 44% | 4299.7 hPa | 0 mm | - | 835 W/m² | - |
| 1777921040 | 17.22° C | 49% | 4299.4 hPa | 0 mm | - | 887 W/m² | - |
| 1777920737 | 17.78° C | 49% | 4299.5 hPa | 0 mm | - | 671 W/m² | - |
| 1777920433 | 18.89° C | 48% | 4299.6 hPa | 0 mm | - | 278 W/m² | - |
| 1777920129 | 18.89° C | 46% | 4299.7 hPa | 0 mm | - | 225 W/m² | - |
| 1777919825 | 17.22° C | 46% | 4299.7 hPa | 0 mm | - | 914 W/m² | - |
| 1777919522 | 17.78° C | 47% | 4299.7 hPa | 0 mm | - | 920 W/m² | - |
| 1777919220 | 18.33° C | 48% | 4299.9 hPa | 0 mm | - | 855 W/m² | - |
| 1777918917 | 17.78° C | 52% | 4299.8 hPa | 0 mm | - | 922 W/m² | - |
| 1777918615 | 17.78° C | 51% | 4299.7 hPa | 0 mm | - | 877 W/m² | - |
| 1777918312 | 17.22° C | 52% | 4299.6 hPa | 0 mm | - | 850 W/m² | - |
| 1777918011 | 16.11° C | 55% | 4300 hPa | 0 mm | - | 843 W/m² | - |
| 1777917709 | 16.67° C | 53% | 4299.9 hPa | 0 mm | - | 828 W/m² | - |
| 1777917406 | 16.67° C | 55% | 4299.9 hPa | 0 mm | - | 784 W/m² | - |
| 1777917103 | 17.22° C | 55% | 4300.3 hPa | 0 mm | - | 836 W/m² | - |
| 1777916801 | 16.67° C | 58% | 4300.1 hPa | 0 mm | - | 844 W/m² | - |
| 1777916497 | 16.11° C | 57% | 4300.1 hPa | 0 mm | - | 831 W/m² | - |
| 1777916195 | 15.56° C | 60% | 4300.1 hPa | 0 mm | - | 832 W/m² | - |
| 1777915892 | 15° C | 61% | 4300.1 hPa | 0 mm | - | 830 W/m² | - |
| 1777915589 | 15° C | 62% | 4300.3 hPa | 0 mm | - | 836 W/m² | - |
| 1777915285 | 15° C | 61% | 4300.2 hPa | 0 mm | - | 832 W/m² | - |
| 1777914981 | 14.44° C | 68% | 4300.2 hPa | 0 mm | - | 803 W/m² | - |
* Rain latest hour (hover to see other rain measurements)
** Current wind speed in m/s (hover to see current wind gust speed)